VTBU/UTP METAR and TAF weather

Enter ICAO airport designator
Station Type Date Time Source
VTBU METAR 2019/12/07 17:30 UTC NOAA

VTBU 071730Z 36007KT 7000 NSC 22/10 Q1016 NOSIG


Station Type Date Time Source
VTBU Decoded METAR 2019/12/07 17:30 UTC NOAA

Rayong, Thailand (VTBU) 12-38N 101-21E 5M
Dec 07, 2019 - 12:30 PM EST / 2019.12.07 1730 UTC
Wind: from the N (360 degrees) at 8 MPH (7 KT):0
Visibility: 4 mile(s):0
Temperature: 71 F (22 C)
Dew Point: 50 F (10 C)
Relative Humidity: 46%
Pressure (altimeter): 30.00 in. Hg (1016 hPa)
ob: VTBU 071730Z 36007KT 7000 NSC 22/10 Q1016 NOSIG
cycle: 17

Station Type Date Time Source
VTBU TAF 2019/12/07 18:37 UTC NOAA

TAF VTBU 071700Z 0718/0818 03008KT 8000 NSC

Example: see airport list